Time;durP1;ratioP1;P1;durP2;ratioP2;P2;SDS_P1;SDS_P2;PMS_P1;PMS_P2;Temp;Humidity;BMP_temperature;BMP_pressure;BME280_temperature;BME280_humidity;BME280_pressure;Samples;Min_cycle;Max_cycle;Signal;HPM_P1;HPM_P2
2023/09/15 00:00:44;;;;;;;0.40;0.20;;;;;;;12.05;98.60;100627.59;5008300;28;20504;-48
2023/09/15 00:03:11;;;;;;;0.40;0.20;;;;;;;12.00;97.92;100625.06;5014326;28;20465;-49
2023/09/15 00:05:38;;;;;;;0.40;0.20;;;;;;;11.83;99.01;100622.03;5001537;28;20575;-49
2023/09/15 00:08:05;;;;;;;0.40;0.20;;;;;;;11.90;98.95;100623.59;5003447;28;20510;-49
2023/09/15 00:10:39;;;;;;;0.40;0.20;;;;;;;11.85;98.86;100621.06;5007518;28;20473;-49
2023/09/15 00:13:06;;;;;;;0.40;0.20;;;;;;;11.69;98.83;100619.72;5007686;28;20977;-48
2023/09/15 00:15:35;;;;;;;0.40;0.20;;;;;;;11.76;98.79;100618.63;5001650;28;20480;-48
2023/09/15 00:18:02;;;;;;;0.40;0.20;;;;;;;11.66;98.86;100618.94;5001587;28;20454;-51
2023/09/15 00:20:30;;;;;;;0.40;0.20;;;;;;;11.79;98.55;100615.94;5001646;28;20472;-48
2023/09/15 00:22:56;;;;;;;0.40;0.20;;;;;;;11.83;97.94;100619.38;5013090;28;20703;-49
2023/09/15 00:25:26;;;;;;;0.40;0.20;;;;;;;11.72;98.25;100616.97;5001704;28;20477;-48
2023/09/15 00:27:57;;;;;;;0.40;0.20;;;;;;;11.61;98.71;100607.53;5004968;28;20457;-49
2023/09/15 00:30:25;;;;;;;0.40;0.20;;;;;;;11.52;99.10;100611.34;5002646;28;20469;-49
2023/09/15 00:32:52;;;;;;;0.40;0.20;;;;;;;11.56;99.34;100613.88;5001067;28;20453;-48
2023/09/15 00:35:26;;;;;;;0.40;0.20;;;;;;;11.45;99.47;100613.28;5005897;28;20946;-48
2023/09/15 00:37:55;;;;;;;0.40;0.20;;;;;;;11.62;99.35;100612.81;5007786;28;20449;-49
2023/09/15 00:40:23;;;;;;;0.40;0.20;;;;;;;11.49;99.96;100611.38;5003690;28;20536;-48
2023/09/15 00:42:51;;;;;;;0.40;0.20;;;;;;;11.42;99.45;100605.38;5007606;28;20481;-48
2023/09/15 00:45:22;;;;;;;0.40;0.20;;;;;;;11.50;99.81;100606.03;5004695;28;21061;-48
2023/09/15 00:47:52;;;;;;;0.40;0.20;;;;;;;11.42;99.27;100608.03;5000790;28;20530;-48
2023/09/15 00:50:24;;;;;;;0.40;0.20;;;;;;;11.48;98.91;100606.97;5005373;28;20473;-48
2023/09/15 00:52:57;;;;;;;0.40;0.20;;;;;;;11.45;98.70;100613.28;5000474;28;20449;-48
2023/09/15 00:55:24;;;;;;;0.40;0.30;;;;;;;11.47;98.67;100607.91;5016006;28;20495;-48
2023/09/15 00:57:53;;;;;;;0.40;0.20;;;;;;;11.41;99.16;100606.28;5005771;28;20951;-48
2023/09/15 01:00:20;;;;;;;0.40;0.20;;;;;;;11.50;98.08;100605.16;5007356;28;20559;-48
2023/09/15 01:02:48;;;;;;;0.40;0.27;;;;;;;11.38;99.47;100609.03;5009724;28;20572;-49
2023/09/15 01:05:22;;;;;;;0.40;0.20;;;;;;;11.24;99.24;100611.19;5000462;28;20446;-49
2023/09/15 01:07:52;;;;;;;0.40;0.20;;;;;;;11.22;99.24;100613.00;5004039;28;20470;-48
2023/09/15 01:10:20;;;;;;;0.40;0.20;;;;;;;11.19;98.93;100611.28;5007059;28;20465;-48
2023/09/15 01:12:48;;;;;;;0.40;0.20;;;;;;;11.17;99.02;100607.81;5004643;28;20926;-48
2023/09/15 01:15:19;;;;;;;0.40;0.20;;;;;;;11.17;99.14;100606.94;5000145;28;20453;-49
2023/09/15 01:17:54;;;;;;;0.40;0.20;;;;;;;11.11;99.69;100607.09;5001436;28;20906;-48
2023/09/15 01:20:42;;;;;;;0.40;0.20;;;;;;;11.26;99.72;100596.94;5009618;28;21032;-48
2023/09/15 01:23:18;;;;;;;0.40;0.20;;;;;;;11.26;100.00;100593.41;4999727;28;20588;-48
2023/09/15 01:26:18;;;;;;;0.40;0.20;;;;;;;11.15;100.00;100601.66;5002847;28;20571;-48
2023/09/15 01:29:09;;;;;;;0.40;0.20;;;;;;;11.27;100.00;100595.16;5002174;28;20468;-48
2023/09/15 01:31:37;;;;;;;0.40;0.20;;;;;;;11.36;99.67;100591.34;5000216;28;20448;-49
2023/09/15 01:34:05;;;;;;;0.40;0.20;;;;;;;11.18;99.60;100595.38;5010591;28;20507;-48
2023/09/15 01:36:31;;;;;;;0.40;0.20;;;;;;;10.94;100.00;100599.53;5007609;28;20512;-48
2023/09/15 01:38:58;;;;;;;0.40;0.20;;;;;;;11.13;100.00;100592.84;5000293;28;20885;-49
2023/09/15 01:41:24;;;;;;;0.40;0.20;;;;;;;11.01;99.97;100590.50;5006667;28;20453;-48
2023/09/15 01:43:53;;;;;;;0.40;0.20;;;;;;;11.03;99.98;100588.66;5006361;28;20449;-48
2023/09/15 01:46:23;;;;;;;0.40;0.20;;;;;;;11.05;99.85;100591.28;5005823;28;20485;-49
2023/09/15 01:48:55;;;;;;;0.40;0.20;;;;;;;11.08;100.00;100594.72;5006380;28;20464;-49
2023/09/15 01:51:23;;;;;;;0.40;0.20;;;;;;;11.11;98.75;100594.69;5004441;28;20455;-48
2023/09/15 01:53:52;;;;;;;0.40;0.20;;;;;;;11.07;99.23;100593.00;5001392;28;20862;-49
2023/09/15 01:56:21;;;;;;;0.40;0.20;;;;;;;10.94;99.16;100595.09;5018184;28;20502;-49
2023/09/15 01:58:47;;;;;;;0.40;0.20;;;;;;;10.82;100.00;100599.81;4999411;28;20493;-48
2023/09/15 02:01:14;;;;;;;0.40;0.20;;;;;;;10.80;100.00;100599.00;5006425;28;20829;-48
2023/09/15 02:03:41;;;;;;;0.40;0.20;;;;;;;10.79;100.00;100600.78;5009824;28;20531;-49
2023/09/15 02:06:08;;;;;;;0.40;0.20;;;;;;;10.85;100.00;100594.47;5001647;28;20914;-48
2023/09/15 02:08:34;;;;;;;0.40;0.20;;;;;;;10.92;99.71;100598.69;4999514;28;20531;-49
2023/09/15 02:11:01;;;;;;;0.40;0.20;;;;;;;10.94;98.90;100592.41;5002115;28;20508;-48
2023/09/15 02:13:27;;;;;;;0.40;0.20;;;;;;;10.86;99.86;100593.53;5005939;28;20469;-49
2023/09/15 02:15:54;;;;;;;0.40;0.20;;;;;;;10.90;99.08;100595.22;5002626;28;20456;-48
2023/09/15 02:18:22;;;;;;;0.40;0.20;;;;;;;10.72;99.76;100599.19;4999164;28;20583;-48
2023/09/15 02:20:55;;;;;;;0.40;0.20;;;;;;;10.68;100.00;100590.41;5008964;28;20480;-48
2023/09/15 02:23:23;;;;;;;0.40;0.20;;;;;;;10.80;99.27;100589.22;5008157;28;20977;-48
2023/09/15 02:25:49;;;;;;;0.40;0.20;;;;;;;10.77;98.79;100593.75;5003980;28;20518;-48
2023/09/15 02:28:16;;;;;;;0.40;0.20;;;;;;;10.73;99.13;100592.09;5001767;28;20539;-48
2023/09/15 02:30:43;;;;;;;0.40;0.20;;;;;;;10.60;99.57;100586.19;5004325;28;20468;-48
2023/09/15 02:33:10;;;;;;;0.40;0.20;;;;;;;10.55;100.00;100588.97;4999352;28;20448;-48
2023/09/15 02:35:37;;;;;;;0.40;0.20;;;;;;;10.57;99.43;100584.50;5000681;28;20453;-48
2023/09/15 02:38:04;;;;;;;0.40;0.20;;;;;;;10.64;98.95;100583.41;5006112;28;20465;-48
2023/09/15 02:40:30;;;;;;;0.40;0.20;;;;;;;10.52;98.87;100583.72;5005182;28;20468;-48
2023/09/15 02:42:57;;;;;;;0.40;0.20;;;;;;;10.71;99.41;100588.59;4998648;28;20489;-48
2023/09/15 02:45:23;;;;;;;0.40;0.20;;;;;;;10.68;98.13;100587.75;5005299;28;20452;-49
2023/09/15 02:47:50;;;;;;;0.40;0.20;;;;;;;10.61;98.71;100587.94;4999344;28;20598;-48
2023/09/15 02:50:16;;;;;;;0.30;0.20;;;;;;;10.54;98.74;100581.00;5001395;28;20473;-49
2023/09/15 02:52:43;;;;;;;0.40;0.20;;;;;;;10.65;98.82;100586.94;5009301;28;20461;-48
2023/09/15 02:55:09;;;;;;;0.40;0.20;;;;;;;10.54;98.80;100583.66;5017616;28;20452;-48
2023/09/15 02:57:36;;;;;;;0.40;0.20;;;;;;;10.54;99.36;100581.00;5010099;28;21019;-48
2023/09/15 03:00:07;;;;;;;0.40;0.20;;;;;;;10.46;98.99;100580.34;5008727;28;20542;-48
2023/09/15 03:02:35;;;;;;;0.40;0.20;;;;;;;10.58;99.07;100574.75;5016057;28;20552;-48
2023/09/15 03:05:04;;;;;;;0.40;0.20;;;;;;;10.37;99.83;100579.63;5002823;28;20457;-48
2023/09/15 03:07:31;;;;;;;0.40;0.20;;;;;;;10.35;100.00;100576.13;5008704;28;20994;-48
2023/09/15 03:09:58;;;;;;;0.40;0.20;;;;;;;10.32;99.77;100570.03;5009101;28;20555;-48
2023/09/15 03:12:25;;;;;;;0.40;0.20;;;;;;;10.35;99.57;100576.13;5003272;28;20448;-47
2023/09/15 03:14:52;;;;;;;0.40;0.20;;;;;;;10.34;100.00;100566.41;5002535;28;20523;-48
2023/09/15 03:17:21;;;;;;;0.40;0.20;;;;;;;10.23;100.00;100571.09;5008616;28;20479;-48
2023/09/15 03:19:48;;;;;;;0.40;0.20;;;;;;;10.36;99.54;100567.25;5009107;28;20546;-48
2023/09/15 03:22:14;;;;;;;0.40;0.20;;;;;;;10.52;98.84;100577.53;5014198;28;20461;-49
2023/09/15 03:24:44;;;;;;;0.40;0.20;;;;;;;10.44;98.81;100576.84;5002162;28;20457;-50
2023/09/15 03:27:11;;;;;;;0.40;0.20;;;;;;;10.45;98.91;100574.16;5007248;28;21272;-48
2023/09/15 03:29:37;;;;;;;0.40;0.20;;;;;;;10.24;99.23;100574.63;5008911;28;20468;-49
2023/09/15 03:32:04;;;;;;;0.40;0.20;;;;;;;10.10;100.00;100565.16;5004295;28;20460;-48
2023/09/15 03:34:30;;;;;;;0.40;0.20;;;;;;;10.26;100.00;100570.16;5002232;28;20453;-49
2023/09/15 03:36:57;;;;;;;0.40;0.20;;;;;;;10.01;100.00;100564.50;5006582;28;20997;-47
2023/09/15 03:39:23;;;;;;;0.40;0.20;;;;;;;10.01;100.00;100559.19;5008347;28;21059;-48
2023/09/15 03:41:50;;;;;;;0.40;0.20;;;;;;;10.10;100.00;100564.28;5004659;28;20551;-50
2023/09/15 03:44:16;;;;;;;0.40;0.20;;;;;;;10.30;99.87;100564.75;5002035;28;20500;-48
2023/09/15 03:46:43;;;;;;;0.40;0.20;;;;;;;10.18;99.20;100565.00;5006477;28;20528;-48
2023/09/15 03:49:10;;;;;;;0.40;0.20;;;;;;;10.19;99.96;100565.88;5008533;28;20479;-48
2023/09/15 03:51:37;;;;;;;0.33;0.20;;;;;;;10.14;100.00;100570.38;5008232;28;20514;-48
2023/09/15 03:54:04;;;;;;;0.40;0.20;;;;;;;10.11;98.81;100568.69;5005848;28;20918;-48
2023/09/15 03:56:32;;;;;;;0.40;0.20;;;;;;;10.05;98.97;100560.88;5018724;28;20503;-48
2023/09/15 03:58:59;;;;;;;0.40;0.20;;;;;;;10.12;99.56;100559.81;5001496;28;20472;-48
2023/09/15 04:01:25;;;;;;;0.40;0.20;;;;;;;10.17;99.75;100562.38;5008608;28;20535;-48
2023/09/15 04:03:52;;;;;;;0.40;0.20;;;;;;;10.04;100.00;100553.81;5009618;28;20544;-48
2023/09/15 04:06:19;;;;;;;0.40;0.20;;;;;;;9.94;100.00;100553.13;5005779;28;20452;-48
2023/09/15 04:08:46;;;;;;;0.40;0.20;;;;;;;9.98;100.00;100554.78;5000066;28;20484;-48
2023/09/15 04:11:13;;;;;;;0.40;0.20;;;;;;;10.32;100.00;100549.66;5004123;28;20459;-47
2023/09/15 04:13:40;;;;;;;0.40;0.20;;;;;;;10.33;100.00;100555.84;5008178;28;20460;-48
2023/09/15 04:16:06;;;;;;;0.37;0.20;;;;;;;10.27;99.85;100556.81;5005998;28;20510;-48
2023/09/15 04:18:33;;;;;;;0.40;0.20;;;;;;;10.28;99.82;100558.59;5001207;28;20456;-48
2023/09/15 04:21:00;;;;;;;0.40;0.20;;;;;;;10.12;99.57;100562.47;5010866;28;20832;-48
2023/09/15 04:23:26;;;;;;;0.40;0.20;;;;;;;10.05;100.00;100566.19;5001040;28;20934;-48
2023/09/15 04:25:53;;;;;;;0.40;0.20;;;;;;;10.22;100.00;100565.81;5014963;28;20456;-48
2023/09/15 04:28:19;;;;;;;0.40;0.20;;;;;;;10.00;100.00;100565.38;5001160;28;20550;-48
2023/09/15 04:30:46;;;;;;;0.40;0.20;;;;;;;10.16;100.00;100568.59;5002684;28;20488;-48
2023/09/15 04:33:12;;;;;;;0.40;0.20;;;;;;;10.07;100.00;100559.03;5007622;28;20453;-48
2023/09/15 04:35:39;;;;;;;0.40;0.20;;;;;;;9.94;100.00;100563.75;5006108;28;20853;-48
2023/09/15 04:38:07;;;;;;;0.40;0.20;;;;;;;9.98;100.00;100567.19;5001166;28;20460;-48
2023/09/15 04:40:33;;;;;;;0.40;0.20;;;;;;;10.11;100.00;100558.06;5002267;28;20473;-48
2023/09/15 04:43:00;;;;;;;0.40;0.20;;;;;;;10.09;100.00;100563.41;5010070;28;20889;-49
2023/09/15 04:45:26;;;;;;;0.40;0.20;;;;;;;10.11;99.33;100558.06;5002105;28;20536;-48
2023/09/15 04:47:53;;;;;;;0.40;0.20;;;;;;;10.13;100.00;100568.66;5009647;28;20575;-48
2023/09/15 04:50:19;;;;;;;0.40;0.20;;;;;;;9.97;99.97;100561.03;5007642;28;20543;-49
2023/09/15 04:52:46;;;;;;;0.40;0.20;;;;;;;10.06;100.00;100562.63;5008350;28;20450;-48
2023/09/15 04:55:12;;;;;;;0.40;0.20;;;;;;;9.94;99.66;100560.22;5014746;28;20449;-48
2023/09/15 04:57:39;;;;;;;0.30;0.20;;;;;;;9.87;100.00;100564.81;5007547;28;20462;-49
2023/09/15 05:00:12;;;;;;;0.40;0.20;;;;;;;9.92;100.00;100562.91;5007476;28;20535;-48
2023/09/15 05:02:42;;;;;;;0.40;0.20;;;;;;;9.80;100.00;100565.81;5008406;28;20460;-49
2023/09/15 05:05:08;;;;;;;0.40;0.20;;;;;;;9.85;100.00;100563.94;5011375;28;20448;-49
2023/09/15 05:07:35;;;;;;;0.40;0.20;;;;;;;9.84;100.00;100570.16;5012154;28;20484;-48
2023/09/15 05:10:02;;;;;;;0.40;0.20;;;;;;;9.91;100.00;100565.59;5010517;28;20472;-48
2023/09/15 05:12:28;;;;;;;0.40;0.20;;;;;;;9.89;100.00;100567.41;5000868;28;20552;-48
2023/09/15 05:14:55;;;;;;;0.40;0.20;;;;;;;10.03;100.00;100574.19;4999055;28;20477;-48
2023/09/15 05:17:22;;;;;;;0.40;0.20;;;;;;;10.07;100.00;100572.31;5010444;28;20468;-48
2023/09/15 05:19:49;;;;;;;0.40;0.20;;;;;;;10.07;100.00;100581.16;5011367;28;20479;-49
2023/09/15 05:22:16;;;;;;;0.40;0.20;;;;;;;9.82;100.00;100571.09;5012269;28;20511;-48
2023/09/15 05:24:42;;;;;;;0.40;0.20;;;;;;;9.90;100.00;100569.16;5000178;28;20464;-47
2023/09/15 05:27:09;;;;;;;0.40;0.20;;;;;;;9.99;100.00;100568.94;5004576;28;20489;-48
2023/09/15 05:29:35;;;;;;;0.30;0.20;;;;;;;9.65;100.00;100580.28;5004835;28;20519;-48
2023/09/15 05:32:02;;;;;;;0.40;0.20;;;;;;;9.85;100.00;100577.22;5004368;28;20485;-48
2023/09/15 05:34:29;;;;;;;0.40;0.20;;;;;;;9.94;100.00;100577.03;5006328;28;20552;-48
2023/09/15 05:36:56;;;;;;;0.40;0.20;;;;;;;10.10;100.00;100578.44;5002510;28;20535;-48
2023/09/15 05:39:23;;;;;;;0.40;0.20;;;;;;;10.33;100.00;100580.63;4999892;28;20476;-48
2023/09/15 05:41:49;;;;;;;0.40;0.20;;;;;;;10.44;100.00;100576.84;5004013;28;20457;-47
2023/09/15 05:44:16;;;;;;;0.30;0.20;;;;;;;10.54;100.00;100573.03;5006409;28;20488;-48
2023/09/15 05:46:43;;;;;;;0.40;0.20;;;;;;;10.80;100.00;100575.06;4996268;28;20512;-48
2023/09/15 05:49:09;;;;;;;0.30;0.20;;;;;;;10.81;100.00;100568.84;5006243;28;20560;-48
2023/09/15 05:51:36;;;;;;;0.30;0.20;;;;;;;10.95;100.00;100575.56;5012417;28;20945;-48
2023/09/15 05:54:03;;;;;;;0.40;0.20;;;;;;;11.07;100.00;100576.16;5006335;28;20451;-48
2023/09/15 05:56:29;;;;;;;0.40;0.20;;;;;;;11.25;100.00;100573.03;5016323;28;20523;-48
2023/09/15 05:58:58;;;;;;;0.40;0.20;;;;;;;11.45;100.00;100568.03;5005599;28;20571;-48
2023/09/15 06:01:24;;;;;;;0.40;0.20;;;;;;;11.53;100.00;100574.03;5004083;28;20464;-49
2023/09/15 06:03:51;;;;;;;0.40;0.20;;;;;;;11.46;99.56;100576.88;5001131;28;20882;-49
2023/09/15 06:06:18;;;;;;;0.40;0.20;;;;;;;11.43;99.54;100579.63;5010732;28;20460;-49
2023/09/15 06:08:45;;;;;;;0.40;0.20;;;;;;;11.62;100.00;100577.31;5001011;28;20481;-49
2023/09/15 06:11:11;;;;;;;0.40;0.20;;;;;;;11.71;100.00;100577.06;5003756;28;20456;-48
2023/09/15 06:13:38;;;;;;;0.40;0.20;;;;;;;11.89;100.00;100571.22;5007134;28;20508;-48
2023/09/15 06:16:06;;;;;;;0.40;0.20;;;;;;;11.99;100.00;100561.19;5003881;28;20504;-50
2023/09/15 06:18:33;;;;;;;0.40;0.20;;;;;;;12.10;100.00;100573.28;4996423;28;20449;-48
2023/09/15 06:21:00;;;;;;;0.40;0.20;;;;;;;12.10;100.00;100577.72;5003539;28;20950;-48
2023/09/15 06:23:30;;;;;;;0.40;0.20;;;;;;;12.37;100.00;100576.00;5008211;28;20520;-49
2023/09/15 06:25:56;;;;;;;0.40;0.20;;;;;;;12.44;99.69;100574.88;5001089;28;20846;-49
2023/09/15 06:28:23;;;;;;;0.40;0.20;;;;;;;12.54;99.97;100581.66;5008860;28;20516;-49
2023/09/15 06:30:50;;;;;;;0.40;0.20;;;;;;;12.50;99.15;100584.50;5000445;28;20474;-48
2023/09/15 06:33:17;;;;;;;0.40;0.20;;;;;;;12.42;98.34;100580.25;5005319;28;20818;-49
2023/09/15 06:35:44;;;;;;;0.40;0.30;;;;;;;12.38;98.78;100583.09;5000238;28;20979;-49
2023/09/15 06:38:11;;;;;;;0.40;0.20;;;;;;;12.92;96.73;100582.22;5005309;28;20508;-48
2023/09/15 06:40:38;;;;;;;0.40;0.20;;;;;;;12.90;98.44;100576.06;5005214;28;20531;-48
2023/09/15 06:43:06;;;;;;;0.40;0.20;;;;;;;12.77;98.12;100577.41;4998426;28;20503;-48
2023/09/15 06:45:34;;;;;;;0.40;0.20;;;;;;;12.98;97.96;100569.53;5005787;28;20456;-49
2023/09/15 06:48:01;;;;;;;0.40;0.20;;;;;;;12.95;99.17;100572.31;4999523;28;20496;-48
2023/09/15 06:50:28;;;;;;;0.40;0.20;;;;;;;13.03;98.40;100572.06;5007669;28;20461;-49
2023/09/15 06:52:54;;;;;;;0.40;0.20;;;;;;;12.98;98.87;100574.00;4999296;28;20475;-48
2023/09/15 06:55:21;;;;;;;0.40;0.20;;;;;;;13.10;98.77;100570.91;5019416;28;20858;-49
2023/09/15 06:57:48;;;;;;;0.40;0.20;;;;;;;13.11;99.93;100575.31;5004405;28;21034;-48
2023/09/15 07:00:14;;;;;;;0.40;0.20;;;;;;;13.33;99.43;100570.16;5005664;28;20465;-48
2023/09/15 07:02:41;;;;;;;0.40;0.20;;;;;;;13.82;97.44;100579.91;5007375;28;20496;-48
2023/09/15 07:05:08;;;;;;;0.40;0.20;;;;;;;13.68;97.25;100571.53;4999006;28;20453;-48
2023/09/15 07:07:34;;;;;;;0.40;0.20;;;;;;;13.80;97.35;100579.09;5004040;28;20485;-49
2023/09/15 07:10:01;;;;;;;0.40;0.20;;;;;;;13.48;98.22;100574.06;5005210;28;20480;-48
2023/09/15 07:12:28;;;;;;;0.40;0.20;;;;;;;13.51;98.64;100568.63;5000806;28;20476;-48
2023/09/15 07:14:54;;;;;;;0.40;0.20;;;;;;;13.63;98.68;100576.19;4998875;28;20457;-48
2023/09/15 07:17:21;;;;;;;0.40;0.30;;;;;;;14.02;97.38;100578.31;5003096;28;20488;-49
2023/09/15 07:19:47;;;;;;;0.40;0.20;;;;;;;13.92;97.67;100575.97;5005226;28;20478;-48
2023/09/15 07:22:14;;;;;;;0.40;0.20;;;;;;;14.07;98.37;100573.66;5010247;28;20511;-49
2023/09/15 07:24:41;;;;;;;0.40;0.20;;;;;;;13.95;97.95;100572.31;4998450;28;21082;-48
2023/09/15 07:27:08;;;;;;;0.40;0.20;;;;;;;13.88;98.40;100576.16;5002743;28;20450;-48
2023/09/15 07:29:36;;;;;;;0.40;0.20;;;;;;;14.08;97.45;100564.69;5005403;28;20844;-49
2023/09/15 07:32:04;;;;;;;0.40;0.20;;;;;;;14.15;97.43;100566.22;4992343;28;20480;-48
2023/09/15 07:34:30;;;;;;;0.40;0.20;;;;;;;14.06;97.27;100564.75;5004036;28;20561;-49
2023/09/15 07:36:57;;;;;;;0.40;0.20;;;;;;;14.33;97.19;100562.81;5002624;28;20977;-49
2023/09/15 07:39:23;;;;;;;0.40;0.20;;;;;;;14.62;96.54;100559.00;5000758;28;20469;-50
2023/09/15 07:41:50;;;;;;;0.40;0.20;;;;;;;14.81;95.86;100561.81;5012125;28;20495;-48
2023/09/15 07:44:17;;;;;;;0.40;0.20;;;;;;;14.96;95.74;100566.50;5001643;28;20448;-48
2023/09/15 07:46:43;;;;;;;0.40;0.20;;;;;;;15.32;95.14;100560.50;5005241;28;20453;-48
2023/09/15 07:49:10;;;;;;;0.40;0.20;;;;;;;15.24;94.78;100558.16;5008420;28;20875;-49
2023/09/15 07:51:37;;;;;;;0.40;0.20;;;;;;;15.40;95.96;100555.69;5008362;28;21019;-48
2023/09/15 07:54:03;;;;;;;0.40;0.20;;;;;;;15.57;94.98;100554.91;5005185;28;20518;-48
2023/09/15 07:56:30;;;;;;;0.40;0.20;;;;;;;15.65;95.09;100556.34;5010534;28;20460;-49
2023/09/15 07:58:56;;;;;;;0.40;0.20;;;;;;;15.83;95.27;100557.31;5001464;28;20480;-48
2023/09/15 08:01:23;;;;;;;0.40;0.20;;;;;;;15.92;95.09;100554.22;5008933;28;21019;-48
2023/09/15 08:03:49;;;;;;;0.40;0.20;;;;;;;15.92;94.90;100556.91;5011080;28;20453;-47
2023/09/15 08:06:16;;;;;;;0.40;0.20;;;;;;;16.37;94.04;100549.44;5005177;28;20431;-50
2023/09/15 08:08:43;;;;;;;0.40;0.20;;;;;;;15.85;95.22;100551.88;5001619;28;20858;-48
2023/09/15 08:11:10;;;;;;;0.40;0.20;;;;;;;15.96;94.84;100549.59;5005901;28;20533;-47
2023/09/15 08:13:36;;;;;;;0.40;0.20;;;;;;;16.08;93.73;100548.16;5001589;28;20467;-47
2023/09/15 08:16:03;;;;;;;0.40;0.20;;;;;;;16.38;94.34;100545.81;5003788;28;20508;-47
2023/09/15 08:18:30;;;;;;;0.40;0.20;;;;;;;16.62;90.12;100536.56;5007849;28;20469;-48
2023/09/15 08:20:56;;;;;;;0.40;0.20;;;;;;;16.45;92.41;100540.09;5005516;28;20449;-48
2023/09/15 08:23:23;;;;;;;0.40;0.20;;;;;;;16.82;93.05;100532.91;5010441;28;20453;-48
2023/09/15 08:25:50;;;;;;;0.40;0.20;;;;;;;16.71;93.52;100536.13;5003857;28;20523;-47
2023/09/15 08:28:16;;;;;;;0.40;0.20;;;;;;;16.81;92.82;100531.16;5007903;28;20504;-47
2023/09/15 08:30:46;;;;;;;0.40;0.20;;;;;;;17.14;91.61;100528.59;5005852;28;20476;-47
2023/09/15 08:33:13;;;;;;;0.40;0.20;;;;;;;17.31;91.66;100525.88;5000828;28;20457;-47
2023/09/15 08:35:40;;;;;;;0.40;0.20;;;;;;;17.62;90.88;100532.31;5002467;28;20457;-47
2023/09/15 08:38:08;;;;;;;0.40;0.20;;;;;;;17.55;91.93;100534.47;5012656;28;20519;-47
2023/09/15 08:40:46;;;;;;;0.40;0.20;;;;;;;17.50;91.08;100528.44;5001665;28;20469;-47
2023/09/15 08:43:12;;;;;;;0.40;0.20;;;;;;;17.60;90.79;100531.53;5001218;28;20456;-47
2023/09/15 08:45:42;;;;;;;0.40;0.20;;;;;;;17.94;89.84;100525.19;5000892;28;20485;-49
2023/09/15 08:48:10;;;;;;;0.40;0.20;;;;;;;18.06;89.21;100522.69;5005815;28;20847;-48
2023/09/15 08:50:38;;;;;;;0.40;0.20;;;;;;;18.41;88.42;100527.94;5008928;28;20526;-49
2023/09/15 08:53:04;;;;;;;0.40;0.20;;;;;;;18.25;88.29;100527.94;5005383;28;20428;-48
2023/09/15 08:55:32;;;;;;;0.43;0.27;;;;;;;18.44;88.88;100522.38;5004577;28;20449;-50
2023/09/15 08:58:00;;;;;;;0.40;0.20;;;;;;;18.93;87.15;100527.63;5011372;28;20431;-50
2023/09/15 09:00:29;;;;;;;0.40;0.20;;;;;;;18.58;87.97;100525.13;4997663;28;20467;-49
2023/09/15 09:02:55;;;;;;;0.40;0.20;;;;;;;18.57;87.49;100523.38;5011043;28;20456;-50
2023/09/15 09:05:24;;;;;;;0.40;0.20;;;;;;;18.69;87.31;100516.47;5000180;28;20435;-49
2023/09/15 09:07:51;;;;;;;0.40;0.20;;;;;;;18.35;88.75;100523.75;5014655;28;20821;-50
2023/09/15 09:10:19;;;;;;;0.40;0.20;;;;;;;18.38;89.06;100516.47;5004810;28;20456;-49
2023/09/15 09:12:46;;;;;;;0.40;0.20;;;;;;;18.64;88.35;100510.50;5009133;28;20463;-50
2023/09/15 09:15:15;;;;;;;0.40;0.20;;;;;;;18.68;88.04;100519.25;5000459;28;20452;-51
2023/09/15 09:17:42;;;;;;;0.40;0.20;;;;;;;18.60;88.73;100517.81;5008536;28;21002;-51
2023/09/15 09:20:08;;;;;;;0.40;0.20;;;;;;;18.62;88.30;100515.03;5000320;28;20515;-51
2023/09/15 09:22:35;;;;;;;0.40;0.20;;;;;;;18.77;87.93;100516.00;5014066;28;20419;-51
2023/09/15 09:25:02;;;;;;;0.40;0.20;;;;;;;19.06;86.70;100514.28;5000831;28;20961;-51
2023/09/15 09:27:34;;;;;;;0.40;0.20;;;;;;;19.17;86.59;100501.88;5001109;28;20432;-52
2023/09/15 09:30:01;;;;;;;0.40;0.20;;;;;;;19.22;85.90;100501.63;5006035;28;20471;-51
2023/09/15 09:32:27;;;;;;;0.40;0.20;;;;;;;19.14;85.92;100496.69;5006052;28;20460;-52
2023/09/15 09:34:54;;;;;;;0.40;0.20;;;;;;;19.41;85.93;100496.81;4999397;28;20438;-52
2023/09/15 09:37:25;;;;;;;0.40;0.20;;;;;;;19.86;84.31;100496.75;4999985;28;20486;-52
2023/09/15 09:39:53;;;;;;;0.40;0.20;;;;;;;20.05;84.03;100490.09;5010480;28;20477;-52
2023/09/15 09:42:23;;;;;;;0.40;0.20;;;;;;;20.09;83.96;100483.53;4999827;28;20519;-51
2023/09/15 09:44:53;;;;;;;0.50;0.20;;;;;;;20.36;83.47;100485.38;5004669;28;20420;-52
2023/09/15 09:47:21;;;;;;;0.50;0.40;;;;;;;20.06;83.46;100477.47;5006389;28;20431;-51
2023/09/15 09:49:48;;;;;;;0.40;0.20;;;;;;;20.48;83.47;100478.34;5002277;28;20514;-52
2023/09/15 09:52:14;;;;;;;0.40;0.20;;;;;;;20.61;83.52;100481.94;5009924;28;20460;-52
2023/09/15 09:54:41;;;;;;;0.40;0.20;;;;;;;20.88;82.18;100471.97;5009595;28;20874;-52
2023/09/15 09:57:07;;;;;;;0.40;0.20;;;;;;;20.53;83.48;100473.47;5010147;28;20492;-51
2023/09/15 09:59:37;;;;;;;0.43;0.20;;;;;;;20.95;82.54;100464.28;5001609;28;20559;-52
2023/09/15 10:02:04;;;;;;;0.40;0.20;;;;;;;20.51;81.88;100464.63;5011169;28;20493;-52
2023/09/15 10:04:30;;;;;;;0.50;0.20;;;;;;;20.90;80.69;100461.91;5003295;28;20961;-52
2023/09/15 10:06:57;;;;;;;0.50;0.20;;;;;;;21.11;80.45;100461.44;5005827;28;20877;-52
2023/09/15 10:09:24;;;;;;;0.40;0.20;;;;;;;21.37;80.96;100462.31;5000704;28;20520;-52
2023/09/15 10:11:53;;;;;;;0.40;0.20;;;;;;;21.28;81.79;100464.72;5006235;28;20504;-51
2023/09/15 10:14:21;;;;;;;0.50;0.20;;;;;;;21.48;80.54;100452.47;5002585;28;20503;-51
2023/09/15 10:16:48;;;;;;;0.63;0.63;;;;;;;21.56;81.04;100449.22;4999341;28;20431;-52
2023/09/15 10:19:16;;;;;;;0.50;0.20;;;;;;;21.71;79.85;100442.72;5002127;28;21052;-52
2023/09/15 10:21:44;;;;;;;0.50;0.20;;;;;;;21.96;78.19;100443.63;5005942;28;20428;-52
2023/09/15 10:24:11;;;;;;;0.50;0.20;;;;;;;21.83;77.71;100441.81;5007879;28;20467;-51
2023/09/15 10:26:41;;;;;;;0.40;0.20;;;;;;;22.02;77.47;100445.88;4999160;28;20427;-52
2023/09/15 10:29:13;;;;;;;0.40;0.20;;;;;;;21.84;77.49;100438.13;5000729;28;20504;-52
2023/09/15 10:31:44;;;;;;;0.50;0.20;;;;;;;21.82;77.85;100439.22;5005786;28;20502;-52
2023/09/15 10:34:11;;;;;;;0.67;0.67;;;;;;;22.02;78.36;100435.91;5005463;28;20971;-52
2023/09/15 10:36:39;;;;;;;0.50;0.20;;;;;;;22.35;76.79;100429.00;4999285;28;20464;-52
2023/09/15 10:39:14;;;;;;;0.40;0.20;;;;;;;22.37;76.55;100430.63;5005678;28;20443;-51
2023/09/15 10:41:40;;;;;;;0.50;0.30;;;;;;;22.27;74.67;100421.44;5003261;28;20484;-52
2023/09/15 10:44:07;;;;;;;0.50;0.20;;;;;;;22.10;72.95;100432.69;5005604;28;20435;-52
2023/09/15 10:46:42;;;;;;;0.50;0.30;;;;;;;22.20;72.25;100422.88;5000555;28;20903;-52
2023/09/15 10:49:27;;;;;;;3.17;1.90;;;;;;;22.28;72.14;100414.19;5003845;28;20459;-51
2023/09/15 10:51:54;;;;;;;0.50;0.20;;;;;;;22.52;71.35;100419.59;5011239;28;20456;-52
2023/09/15 10:54:23;;;;;;;0.50;0.20;;;;;;;22.62;71.24;100416.06;4998679;28;20441;-52
2023/09/15 10:56:49;;;;;;;0.50;0.20;;;;;;;22.98;71.14;100412.38;5011854;28;20456;-51
2023/09/15 10:59:18;;;;;;;0.50;0.20;;;;;;;22.55;71.53;100408.50;4998423;28;20475;-52
2023/09/15 11:01:45;;;;;;;0.40;0.20;;;;;;;22.35;71.68;100408.19;5005970;28;20439;-51
2023/09/15 11:04:22;;;;;;;0.50;0.20;;;;;;;22.70;72.15;100407.34;5005973;28;20424;-52
2023/09/15 11:06:50;;;;;;;0.50;0.20;;;;;;;23.09;70.98;100406.09;4998462;28;20485;-52
2023/09/15 11:09:17;;;;;;;0.50;0.20;;;;;;;;;;5003587;28;20504;-52
2023/09/15 11:11:49;;;;;;;0.50;0.20;;;;;;;23.36;68.55;100403.06;4998129;28;20449;-52
2023/09/15 11:14:18;;;;;;;0.50;0.30;;;;;;;22.99;70.64;100399.69;5005546;28;20444;-52
2023/09/15 11:16:45;;;;;;;0.50;0.20;;;;;;;23.06;70.10;100392.81;5003360;28;20504;-53
2023/09/15 11:19:13;;;;;;;0.50;0.20;;;;;;;22.68;70.00;100393.91;5005818;28;20449;-52
2023/09/15 11:21:40;;;;;;;0.50;0.20;;;;;;;23.00;70.04;100382.41;5012352;28;20451;-52
2023/09/15 11:24:10;;;;;;;0.50;0.30;;;;;;;23.12;70.69;100377.88;5005167;28;20465;-53
2023/09/15 11:26:45;;;;;;;0.40;0.20;;;;;;;22.87;71.44;100385.22;5008863;28;20464;-52